Pagrindinis puslapis
METAR-TAF:

METAR-TAF

Oro uostai :

Samsunas, Turkija

platuma: 41-15-15N, ilguma: 036-34-03E, Aukštis: 5 m

Dabartinis oras

Ataskaita buvo paskelbta 42 minutes, ne 19:50 UTC
Vėjas 12 kt iš Šiaurės Vakarų
Temperatūra 12°C
Drėgmė 94%
Slėgis 1023 hPa
Matomumas: 6000 m
Mažai debesys ne aukštis 1200 ft
Su prošvaistėmis ne aukštis 2800 ft
Su prošvaistėmis ne aukštis 8000 ft
lietus

METAR: LTFH 151950Z 32012KT 6000 -SHRA FEW012 BKN028 BKN080 12/11 Q1023 NOSIG

Laikas: 23:32 (20:32 UTC)

Prognozė

Ataskaita buvo paskelbta 52 minutes, ne 19:40 UTC
Prognozė galioja nuo 15 metu 21 UTC su 16 metu 06 UTC
Vėjas 12 kt iš Šiaurės Vakarų
Matomumas: 6000 m
Mažai debesys ne aukštis 1200 ft
Su prošvaistėmis ne aukštis 2800 ft
Su prošvaistėmis ne aukštis 8000 ft
Laikinai
nuo 15 metu 21 UTC su 15 metu 24 UTC
lietus

TAF: LTFH 151940Z 1521/1606 31012KT 6000 FEW012 BKN028 BKN080 TEMPO 1521/1524 -SHRA

Orai ataskaitas ir orų prognozės (METAR, TAF).

turimą stotys yra geltonos ir raudonos taškus žemėlapyje.

Perkelti pele per norėdami pamatyti stoties vardą.

Tada spustelėkite, norėdami matyti oro stebėjimo ir prognozės.

Norėdami pakeisti žemėlapį: spustelėkite ant žalios mygtukų su juodo kryžiaus žemyn,; žalią mygtuką su brūkšneliu, jei norite nutolinti; arba žalių rodyklių gretimoms žemėlapius.


METAR-TAF: